createdAt,value
2023-03-06T00:00:46.567Z,23.90
2023-03-06T00:01:46.620Z,23.89
2023-03-06T00:02:46.608Z,23.89
2023-03-06T00:03:46.645Z,23.89
2023-03-06T00:04:46.708Z,23.90
2023-03-06T00:05:46.715Z,23.90
2023-03-06T00:06:46.721Z,23.89
2023-03-06T00:07:46.771Z,23.89
2023-03-06T00:08:46.770Z,23.89
2023-03-06T00:09:46.795Z,23.89
2023-03-06T00:10:46.841Z,23.89
2023-03-06T00:11:46.852Z,23.88
2023-03-06T00:12:46.932Z,23.88
2023-03-06T00:13:46.929Z,23.89
2023-03-06T00:14:46.947Z,23.88
2023-03-06T00:15:46.995Z,23.88
2023-03-06T00:16:46.990Z,23.88
2023-03-06T00:17:47.013Z,23.89
2023-03-06T00:18:47.056Z,23.89
2023-03-06T00:19:47.054Z,23.87
2023-03-06T00:20:47.123Z,23.88
2023-03-06T00:21:47.113Z,23.88
2023-03-06T00:22:47.159Z,23.88
2023-03-06T00:23:47.167Z,23.88
2023-03-06T00:24:47.210Z,23.88
2023-03-06T00:25:47.213Z,23.88
2023-03-06T00:26:47.268Z,23.88
2023-03-06T00:27:47.276Z,23.87
2023-03-06T00:28:47.304Z,23.88
2023-03-06T00:29:47.360Z,23.88
2023-03-06T00:30:47.363Z,23.87
2023-03-06T00:31:47.435Z,23.88
2023-03-06T00:32:47.412Z,23.88
2023-03-06T00:33:47.439Z,23.87
2023-03-06T00:34:47.460Z,23.87
2023-03-06T00:35:47.529Z,23.87
2023-03-06T00:36:47.501Z,23.87
2023-03-06T00:37:47.552Z,23.87
2023-03-06T00:38:47.560Z,23.87
2023-03-06T00:39:47.607Z,23.87
2023-03-06T00:40:47.629Z,23.87
2023-03-06T00:41:47.656Z,23.87
2023-03-06T00:42:47.699Z,23.87
2023-03-06T00:43:47.676Z,23.87
2023-03-06T00:44:47.697Z,23.87
2023-03-06T00:45:47.787Z,23.87
2023-03-06T00:46:47.749Z,23.88
2023-03-06T00:47:47.783Z,23.87
2023-03-06T00:48:47.819Z,23.87
2023-03-06T00:49:47.829Z,23.87
2023-03-06T00:50:47.841Z,23.87
2023-03-06T00:51:47.874Z,23.87
2023-03-06T00:52:47.916Z,23.87
2023-03-06T00:53:47.936Z,23.87
2023-03-06T00:54:47.968Z,23.87
2023-03-06T00:55:47.964Z,23.87
2023-03-06T00:56:48.009Z,23.88
2023-03-06T00:57:48.048Z,23.87
2023-03-06T00:58:48.045Z,23.87
2023-03-06T00:59:48.069Z,23.87
2023-03-06T01:00:48.174Z,23.87
2023-03-06T01:01:48.159Z,23.87
2023-03-06T01:02:48.127Z,23.87
2023-03-06T01:03:48.198Z,23.87
2023-03-06T01:04:48.184Z,23.87
2023-03-06T01:05:48.209Z,23.87
2023-03-06T01:06:48.231Z,23.87
2023-03-06T01:07:48.267Z,23.87
2023-03-06T01:08:48.290Z,23.86
2023-03-06T01:09:48.304Z,23.87
2023-03-06T01:10:48.382Z,23.86
2023-03-06T01:11:48.374Z,23.87
2023-03-06T01:12:48.415Z,23.87
2023-03-06T01:13:48.428Z,23.87
2023-03-06T01:14:48.469Z,23.86
2023-03-06T01:15:48.511Z,23.86
2023-03-06T01:16:48.529Z,23.87
2023-03-06T01:17:48.557Z,23.86
2023-03-06T01:18:48.573Z,23.87
2023-03-06T01:19:48.573Z,23.86
2023-03-06T01:20:48.617Z,23.86
2023-03-06T01:21:48.643Z,23.86
2023-03-06T01:22:48.657Z,23.87
2023-03-06T01:23:48.690Z,23.86
2023-03-06T01:24:48.716Z,23.86
2023-03-06T01:25:48.718Z,23.86
2023-03-06T01:26:48.763Z,23.87
2023-03-06T01:27:48.800Z,23.86
2023-03-06T01:28:48.813Z,23.86
2023-03-06T01:29:48.824Z,23.86
2023-03-06T01:30:48.884Z,23.86
2023-03-06T01:31:48.933Z,23.86
2023-03-06T01:32:48.936Z,23.86
2023-03-06T01:33:48.982Z,23.85
2023-03-06T01:34:49.019Z,23.86
2023-03-06T01:35:49.071Z,23.86
2023-03-06T01:36:49.085Z,23.86
2023-03-06T01:37:49.093Z,23.85
2023-03-06T01:38:49.141Z,23.85
2023-03-06T01:39:49.144Z,23.85
2023-03-06T01:40:49.187Z,23.85
2023-03-06T01:41:49.206Z,23.86
2023-03-06T01:42:49.231Z,23.85
2023-03-06T01:43:49.302Z,23.85
2023-03-06T01:44:49.300Z,23.85
2023-03-06T01:45:49.410Z,23.85
2023-03-06T01:46:49.377Z,23.85
2023-03-06T01:47:49.395Z,23.85
2023-03-06T01:48:49.408Z,23.85
2023-03-06T01:49:49.466Z,23.84
2023-03-06T01:50:49.475Z,23.85
2023-03-06T01:51:49.509Z,23.84
2023-03-06T01:52:49.567Z,23.84
2023-03-06T01:53:49.617Z,23.85
2023-03-06T01:54:49.598Z,23.84
2023-03-06T01:55:49.648Z,23.84
2023-03-06T01:56:49.674Z,23.84
2023-03-06T01:57:49.715Z,23.84
2023-03-06T01:58:49.740Z,23.85
2023-03-06T01:59:49.804Z,23.84
2023-03-06T02:00:49.836Z,23.84
2023-03-06T02:01:49.868Z,23.84
2023-03-06T02:02:49.911Z,23.84
2023-03-06T02:03:49.916Z,23.85
2023-03-06T02:04:49.931Z,23.85
2023-03-06T02:05:49.987Z,23.86
2023-03-06T02:06:49.987Z,23.86
2023-03-06T02:07:50.043Z,23.87
2023-03-06T02:08:50.066Z,23.89
2023-03-06T02:09:50.088Z,23.90
2023-03-06T02:10:50.115Z,23.91
2023-03-06T02:11:50.144Z,23.93
2023-03-06T02:12:50.157Z,23.95
2023-03-06T02:13:50.177Z,23.96
2023-03-06T02:14:50.218Z,23.97
2023-03-06T02:15:50.239Z,23.99
2023-03-06T02:16:50.280Z,24.00
2023-03-06T02:17:50.280Z,24.02
2023-03-06T02:18:50.290Z,24.03
2023-03-06T02:19:50.302Z,24.05
2023-03-06T02:20:50.299Z,24.06
2023-03-06T02:21:50.350Z,24.09
2023-03-06T02:22:50.332Z,24.10
2023-03-06T02:23:50.376Z,24.12
2023-03-06T02:24:50.339Z,24.14
2023-03-06T02:25:50.351Z,24.17
2023-03-06T02:26:50.349Z,24.19
2023-03-06T02:29:50.352Z,24.27
2023-03-06T02:30:50.387Z,24.28
2023-03-06T02:31:50.314Z,24.31
2023-03-06T02:32:50.375Z,24.33
2023-03-06T02:33:50.374Z,24.35
2023-03-06T02:34:50.386Z,24.37
2023-03-06T02:35:50.423Z,24.39
2023-03-06T02:36:50.432Z,24.42
2023-03-06T02:37:50.471Z,24.44
2023-03-06T02:38:50.472Z,24.46
2023-03-06T02:39:50.488Z,24.48
2023-03-06T02:40:50.533Z,24.50
2023-03-06T02:41:50.586Z,24.52
2023-03-06T02:42:50.613Z,24.53
2023-03-06T02:43:50.668Z,24.54
2023-03-06T02:44:50.727Z,24.56
2023-03-06T02:45:50.853Z,24.58
2023-03-06T02:46:50.850Z,24.59
2023-03-06T02:47:50.949Z,24.60
2023-03-06T02:48:50.992Z,24.62
2023-03-06T02:49:51.053Z,24.62
2023-03-06T02:50:51.124Z,24.63
2023-03-06T02:51:51.176Z,24.64
2023-03-06T02:52:51.232Z,24.64
2023-03-06T02:53:51.290Z,24.65
2023-03-06T02:54:51.408Z,24.66
2023-03-06T02:55:51.406Z,24.67
2023-03-06T02:56:51.491Z,24.68
2023-03-06T02:57:51.532Z,24.69
2023-03-06T02:58:51.574Z,24.69
2023-03-06T02:59:51.652Z,24.71
2023-03-06T03:00:51.699Z,24.73
2023-03-06T03:01:51.832Z,24.72
2023-03-06T03:02:51.803Z,24.73
2023-03-06T03:03:51.849Z,24.73
2023-03-06T03:04:51.946Z,24.73
2023-03-06T03:05:51.950Z,24.73
2023-03-06T03:06:52.013Z,24.75
2023-03-06T03:07:52.038Z,24.74
2023-03-06T03:08:52.129Z,24.75
2023-03-06T03:09:52.185Z,24.77
2023-03-06T03:10:52.205Z,24.78
2023-03-06T03:11:52.244Z,24.78
2023-03-06T03:12:52.266Z,24.78
2023-03-06T03:13:52.445Z,24.79
2023-03-06T03:14:52.364Z,24.80
2023-03-06T03:15:52.438Z,24.81
2023-03-06T03:16:52.502Z,24.83
2023-03-06T03:17:52.510Z,24.83
2023-03-06T03:18:52.556Z,24.83
2023-03-06T03:19:52.628Z,24.83
2023-03-06T03:20:52.700Z,24.84
2023-03-06T03:21:52.707Z,24.85
2023-03-06T03:22:52.750Z,24.86
2023-03-06T03:23:52.776Z,24.85
2023-03-06T03:24:52.946Z,24.86
2023-03-06T03:25:52.879Z,24.87
2023-03-06T03:26:52.888Z,24.87
2023-03-06T03:27:52.979Z,24.87
2023-03-06T03:28:53.039Z,24.88
2023-03-06T03:29:53.031Z,24.89
2023-03-06T03:30:53.138Z,24.90
2023-03-06T03:31:53.113Z,24.88
2023-03-06T03:32:53.154Z,24.90
2023-03-06T03:33:53.176Z,24.91
2023-03-06T03:34:53.285Z,24.91
2023-03-06T03:35:53.275Z,24.92
2023-03-06T05:19:56.169Z,25.00
2023-03-06T05:27:56.425Z,24.99
2023-03-06T05:28:56.479Z,24.99
2023-03-06T05:29:56.509Z,24.99
2023-03-06T05:30:56.528Z,24.99
2023-03-06T05:31:56.639Z,24.99
2023-03-06T05:32:56.614Z,24.99
2023-03-06T05:33:56.617Z,24.98
2023-03-06T05:34:56.662Z,24.98
2023-03-06T05:35:56.753Z,24.99
2023-03-06T05:36:56.754Z,24.99
2023-03-06T05:37:56.797Z,24.99
2023-03-06T05:38:56.824Z,24.99
2023-03-06T05:39:56.858Z,24.99
2023-03-06T05:40:56.920Z,24.98
2023-03-06T05:41:56.948Z,24.98
2023-03-06T05:42:56.953Z,24.98
2023-03-06T05:43:56.999Z,24.99
2023-03-06T05:44:57.024Z,24.99
2023-03-06T05:45:57.114Z,24.98
2023-03-06T05:46:57.080Z,24.99
2023-03-06T05:47:57.140Z,24.99
2023-03-06T05:48:57.163Z,24.98
2023-03-06T05:49:57.190Z,24.99
2023-03-06T05:50:57.218Z,24.99
2023-03-06T05:51:57.262Z,24.98
2023-03-06T05:52:57.293Z,24.99
2023-03-06T05:53:57.330Z,24.98
2023-03-06T05:54:57.360Z,24.97
2023-03-06T05:55:57.383Z,24.98
2023-03-06T05:56:57.423Z,24.97
2023-03-06T05:57:57.465Z,24.98
2023-03-06T05:58:57.502Z,24.99
2023-03-06T05:59:57.538Z,24.98
2023-03-06T06:01:04.928Z,24.99
2023-03-06T06:02:57.603Z,24.97
2023-03-06T06:03:57.601Z,24.96
2023-03-06T06:04:57.626Z,24.96
2023-03-06T06:05:57.543Z,24.96
2023-03-06T06:06:57.514Z,24.97
2023-03-06T06:07:57.519Z,24.97
2023-03-06T06:25:58.003Z,24.98
2023-03-06T06:35:57.932Z,24.74
2023-03-06T06:36:57.959Z,24.70
2023-03-06T06:37:57.993Z,24.68
2023-03-06T06:38:58.046Z,24.67
2023-03-06T06:39:58.172Z,24.67
2023-03-06T06:41:29.149Z,24.65
2023-03-06T06:42:15.463Z,24.57
2023-03-06T06:42:59.149Z,24.55
2023-03-06T06:43:59.121Z,24.54
2023-03-06T06:44:58.139Z,24.53
2023-03-06T06:46:28.274Z,24.51
2023-03-06T06:47:28.214Z,24.48
2023-03-06T06:47:59.225Z,24.53
2023-03-06T06:48:58.230Z,24.62
2023-03-06T06:49:58.145Z,24.71
2023-03-06T06:50:58.131Z,24.78
2023-03-06T06:51:58.081Z,24.86
2023-03-06T06:52:58.107Z,24.92
2023-03-06T06:53:58.075Z,24.98
2023-03-06T06:54:58.061Z,25.02
2023-03-06T06:55:58.070Z,25.06
2023-03-06T06:56:58.043Z,25.10
2023-03-06T06:57:58.053Z,25.12
2023-03-06T06:59:14.004Z,25.15
2023-03-06T06:59:59.006Z,25.15
2023-03-06T07:00:58.047Z,25.18
2023-03-06T07:01:58.049Z,25.20
2023-03-06T07:02:58.035Z,25.21
2023-03-06T07:03:58.067Z,25.24
2023-03-06T07:05:04.172Z,25.24
2023-03-06T07:05:59.009Z,25.26
2023-03-06T07:06:57.972Z,25.27
2023-03-06T07:07:57.989Z,25.29
2023-03-06T07:08:58.021Z,25.30
2023-03-06T07:09:57.966Z,25.32
2023-03-06T07:10:57.935Z,25.33
2023-03-06T07:11:57.978Z,25.34
2023-03-06T07:12:57.953Z,25.36
2023-03-06T07:13:57.924Z,25.37
2023-03-06T07:14:57.938Z,25.37
2023-03-06T07:15:58.058Z,25.39
2023-03-06T07:16:57.969Z,25.40
2023-03-06T07:17:57.912Z,25.42
2023-03-06T07:18:57.926Z,25.42
2023-03-06T07:19:57.884Z,25.44
2023-03-06T07:20:59.822Z,25.45
2023-03-06T07:21:57.895Z,25.45
2023-03-06T07:22:57.889Z,25.47
2023-03-06T07:23:58.459Z,25.48
2023-03-06T07:24:57.855Z,25.48
2023-03-06T07:25:57.872Z,25.50
2023-03-06T07:26:57.836Z,25.50
2023-03-06T07:27:57.841Z,25.51
2023-03-06T07:28:57.815Z,25.52
2023-03-06T07:29:57.810Z,25.54
2023-03-06T07:30:57.829Z,25.54
2023-03-06T07:31:57.820Z,25.55
2023-03-06T07:32:57.777Z,25.57
2023-03-06T07:33:57.824Z,25.58
2023-03-06T07:35:57.786Z,25.58
2023-03-06T07:36:57.996Z,25.58
2023-03-06T07:37:57.752Z,25.58
2023-03-06T07:38:57.757Z,25.57
2023-03-06T07:39:57.717Z,25.56
2023-03-06T07:40:57.729Z,25.56
2023-03-06T07:41:58.039Z,25.58
2023-03-06T07:43:09.172Z,25.59
2023-03-06T07:43:58.734Z,25.60
2023-03-06T07:44:57.736Z,25.62
2023-03-06T07:45:57.765Z,25.62
2023-03-06T07:46:57.778Z,25.64
2023-03-06T07:47:57.674Z,25.64
2023-03-06T07:48:57.684Z,25.64
2023-03-06T07:49:57.696Z,25.65
2023-03-06T07:50:57.677Z,25.65
2023-03-06T07:51:58.055Z,25.67
2023-03-06T07:52:57.664Z,25.67
2023-03-06T07:53:57.625Z,25.67
2023-03-06T07:54:57.658Z,25.67
2023-03-06T07:55:57.918Z,25.67
2023-03-06T07:56:58.522Z,25.67
2023-03-06T07:57:57.600Z,25.67
2023-03-06T07:58:57.625Z,25.67
2023-03-06T07:59:57.628Z,25.66
2023-03-06T08:00:57.602Z,25.66
2023-03-06T08:01:57.627Z,25.64
2023-03-06T08:02:57.666Z,25.64
2023-03-06T08:03:57.790Z,25.64
2023-03-06T08:04:57.713Z,25.63
2023-03-06T08:06:57.984Z,25.61
2023-03-06T08:07:57.685Z,25.61
2023-03-06T08:08:57.699Z,25.59
2023-03-06T08:09:57.719Z,25.60
2023-03-06T08:10:57.668Z,25.59
2023-03-06T08:11:57.697Z,25.59
2023-03-06T08:12:57.689Z,25.58
2023-03-06T08:13:57.691Z,25.58
2023-03-06T08:14:57.715Z,25.57
2023-03-06T08:15:57.750Z,25.57
2023-03-06T08:16:57.711Z,25.57
2023-03-06T08:17:57.967Z,25.56
2023-03-06T08:21:57.695Z,25.56
2023-03-06T08:22:57.977Z,25.55
2023-03-06T08:23:57.703Z,25.54
2023-03-06T08:24:57.756Z,25.56
2023-03-06T08:25:57.711Z,25.54
2023-03-06T08:26:57.751Z,25.53
2023-03-06T08:27:57.992Z,25.54
2023-03-06T08:28:57.762Z,25.54
2023-03-06T08:29:57.794Z,25.54
2023-03-06T08:30:57.822Z,25.54
2023-03-06T08:31:57.804Z,25.54
2023-03-06T08:32:57.965Z,25.48
2023-03-06T08:33:58.031Z,25.00
2023-03-06T08:34:57.901Z,23.75
2023-03-06T08:35:58.806Z,22.29
2023-03-06T08:36:57.977Z,21.52
2023-03-06T08:37:58.571Z,21.56
2023-03-06T08:38:58.088Z,21.78
2023-03-06T08:39:58.094Z,22.04
2023-03-06T08:40:58.083Z,22.28
2023-03-06T08:41:58.102Z,22.05
2023-03-06T08:42:58.547Z,21.57
2023-03-06T08:43:58.211Z,21.58
2023-03-06T08:44:58.205Z,21.78
2023-03-06T08:45:58.233Z,22.03
2023-03-06T08:46:58.282Z,22.30
2023-03-06T08:47:58.555Z,22.57
2023-03-06T08:48:58.437Z,22.85
2023-03-06T08:50:00.180Z,23.09
2023-03-06T08:50:58.451Z,23.33
2023-03-06T08:51:58.414Z,23.54
2023-03-06T08:52:58.514Z,23.72
2023-03-06T08:53:58.472Z,23.87
2023-03-06T08:54:58.516Z,24.02
2023-03-06T08:55:58.568Z,24.15
2023-03-06T08:56:58.581Z,24.27
2023-03-06T08:57:58.600Z,24.37
2023-03-06T08:58:58.594Z,24.46
2023-03-06T08:59:58.613Z,24.55
2023-03-06T09:00:58.745Z,24.63
2023-03-06T09:01:58.640Z,24.70
2023-03-06T09:02:58.750Z,24.77
2023-03-06T09:03:58.773Z,24.82
2023-03-06T09:04:58.834Z,24.87
2023-03-06T09:05:58.878Z,24.93
2023-03-06T09:06:58.948Z,24.98
2023-03-06T09:07:58.966Z,25.02
2023-03-06T09:08:58.966Z,25.07
2023-03-06T09:09:59.015Z,25.11
2023-03-06T09:10:59.121Z,25.15
2023-03-06T09:11:59.994Z,25.18
2023-03-06T09:12:59.108Z,25.21
2023-03-06T09:13:59.119Z,25.24
2023-03-06T09:14:59.161Z,25.28
2023-03-06T09:15:59.163Z,25.31
2023-03-06T09:16:59.165Z,25.34
2023-03-06T09:17:59.184Z,25.36
2023-03-06T09:18:59.140Z,25.39
2023-03-06T09:19:59.157Z,25.41
2023-03-06T09:20:59.152Z,25.43
2023-03-06T09:21:59.116Z,25.47
2023-03-06T09:22:59.103Z,25.48
2023-03-06T09:23:59.149Z,25.51
2023-03-06T09:24:59.182Z,25.51
2023-03-06T09:25:59.199Z,25.53
2023-03-06T09:26:59.203Z,25.54
2023-03-06T09:28:10.788Z,25.56
2023-03-06T09:29:00.236Z,25.58
2023-03-06T09:29:59.180Z,25.59
2023-03-06T09:30:59.372Z,25.60
2023-03-06T09:31:59.184Z,25.59
2023-03-06T09:32:59.509Z,25.44
2023-03-06T09:33:59.184Z,24.58
2023-03-06T09:34:59.179Z,22.91
2023-03-06T09:35:59.269Z,21.78
2023-03-06T09:37:59.526Z,21.31
2023-03-06T09:38:59.241Z,21.60
2023-03-06T09:39:59.505Z,21.89
2023-03-06T09:40:59.106Z,22.19
2023-03-06T09:41:59.465Z,22.48
2023-03-06T09:42:59.209Z,22.74
2023-03-06T09:43:59.177Z,22.98
2023-03-06T09:44:59.189Z,23.14
2023-03-06T09:45:59.294Z,23.31
2023-03-06T09:46:59.323Z,23.47
2023-03-06T09:47:59.339Z,23.61
2023-03-06T09:48:59.348Z,23.72
2023-03-06T09:49:59.400Z,23.79
2023-03-06T09:50:59.764Z,23.88
2023-03-06T09:51:59.412Z,23.98
2023-03-06T09:52:59.442Z,24.08
2023-03-06T09:53:59.520Z,24.19
2023-03-06T09:54:59.473Z,24.34
2023-03-06T09:55:59.512Z,24.47
2023-03-06T09:56:59.551Z,24.57
2023-03-06T09:57:59.565Z,24.65
2023-03-06T09:59:00.030Z,24.74
2023-03-06T10:00:01.009Z,24.82
2023-03-06T10:00:59.723Z,24.88
2023-03-06T10:01:59.795Z,24.94
2023-03-06T10:02:59.886Z,24.99
2023-03-06T10:03:59.859Z,25.05
2023-03-06T10:04:59.882Z,25.11
2023-03-06T10:06:02.429Z,25.15
2023-03-06T10:06:59.929Z,25.19
2023-03-06T10:07:59.921Z,25.25
2023-03-06T10:08:59.915Z,25.27
2023-03-06T10:09:59.905Z,25.30
2023-03-06T10:10:59.919Z,25.34
2023-03-06T10:11:59.900Z,25.37
2023-03-06T10:12:59.850Z,25.39
2023-03-06T10:14:00.056Z,25.43
2023-03-06T10:14:59.874Z,25.45
2023-03-06T10:15:59.903Z,25.46
2023-03-06T10:16:59.830Z,25.49
2023-03-06T10:17:59.834Z,25.51
2023-03-06T10:18:59.845Z,25.53
2023-03-06T10:19:59.893Z,25.55
2023-03-06T10:21:13.427Z,25.58
2023-03-06T10:22:00.804Z,25.60
2023-03-06T10:23:03.160Z,25.63
2023-03-06T10:24:01.058Z,25.65
2023-03-06T10:24:59.822Z,25.68
2023-03-06T10:25:59.881Z,25.70
2023-03-06T10:26:59.931Z,25.73
2023-03-06T10:27:59.846Z,25.75
2023-03-06T10:28:59.746Z,25.77
2023-03-06T10:30:03.339Z,25.80
2023-03-06T10:30:59.858Z,25.80
2023-03-06T10:31:59.841Z,25.82
2023-03-06T10:32:59.874Z,25.82
2023-03-06T10:33:59.796Z,25.85
2023-03-06T10:34:59.787Z,25.86
2023-03-06T10:35:59.803Z,25.87
2023-03-06T10:36:59.795Z,25.88
2023-03-06T10:37:59.754Z,25.90
2023-03-06T10:38:59.822Z,25.90
2023-03-06T10:39:59.793Z,25.93
2023-03-06T10:40:59.749Z,25.91
2023-03-06T10:41:59.704Z,25.28
2023-03-06T10:43:11.191Z,23.99
2023-03-06T10:44:00.763Z,22.69
2023-03-06T10:44:59.760Z,21.75
2023-03-06T10:45:59.796Z,21.43
2023-03-06T10:46:59.733Z,21.65
2023-03-06T10:47:59.696Z,21.96
2023-03-06T10:49:00.095Z,22.28
2023-03-06T10:49:59.674Z,22.63
2023-03-06T10:51:01.115Z,22.96
2023-03-06T10:51:59.644Z,23.26
2023-03-06T10:53:00.530Z,23.52
2023-03-06T10:53:59.739Z,23.76
2023-03-06T10:54:59.640Z,23.96
2023-03-06T10:55:59.629Z,24.14
2023-03-06T10:56:59.654Z,24.28
2023-03-06T10:57:59.620Z,24.42
2023-03-06T10:59:00.177Z,24.55
2023-03-06T10:59:59.613Z,24.67
2023-03-06T11:00:59.595Z,24.78
2023-03-06T11:01:59.659Z,24.89
2023-03-06T11:02:59.600Z,24.99
2023-03-06T11:03:59.585Z,25.07
2023-03-06T11:04:59.642Z,25.14
2023-03-06T11:05:59.533Z,25.21
2023-03-06T11:06:59.530Z,25.28
2023-03-06T11:07:59.597Z,25.33
2023-03-06T11:09:59.525Z,25.42
2023-03-06T11:10:59.515Z,25.46
2023-03-06T11:11:59.505Z,25.51
2023-03-06T11:12:59.482Z,25.55
2023-03-06T11:13:59.584Z,25.58
2023-03-06T11:14:59.534Z,25.62
2023-03-06T11:15:59.471Z,25.65
2023-03-06T11:16:59.472Z,25.68
2023-03-06T11:17:59.496Z,25.71
2023-03-06T11:18:59.544Z,25.75
2023-03-06T11:19:59.466Z,25.78
2023-03-06T11:20:59.440Z,25.80
2023-03-06T11:21:59.478Z,25.82
2023-03-06T11:22:59.643Z,25.85
2023-03-06T11:23:59.606Z,25.88
2023-03-06T11:24:59.429Z,25.89
2023-03-06T11:25:59.445Z,25.92
2023-03-06T11:26:59.395Z,25.94
2023-03-06T11:27:59.389Z,25.95
2023-03-06T11:28:59.460Z,25.98
2023-03-06T11:29:59.467Z,25.99
2023-03-06T11:30:59.589Z,26.01
2023-03-06T11:31:59.624Z,26.01
2023-03-06T11:32:59.618Z,26.03
2023-03-06T11:33:59.723Z,26.06
2023-03-06T11:35:00.176Z,26.09
2023-03-06T11:35:59.828Z,26.10
2023-03-06T11:36:59.823Z,26.10
2023-03-06T11:37:59.912Z,26.10
2023-03-06T11:38:59.936Z,26.11
2023-03-06T11:40:00.008Z,26.12
2023-03-06T11:41:00.001Z,26.14
2023-03-06T11:41:59.965Z,26.17
2023-03-06T11:43:00.381Z,26.18
2023-03-06T11:44:00.372Z,26.21
2023-03-06T11:45:01.314Z,26.22
2023-03-06T11:46:00.103Z,26.22
2023-03-06T11:47:00.166Z,26.22
2023-03-06T11:48:00.145Z,26.24
2023-03-06T11:49:00.120Z,26.25
2023-03-06T11:50:00.580Z,26.26
2023-03-06T11:51:00.177Z,26.26
2023-03-06T11:52:00.264Z,26.26
2023-03-06T11:53:00.219Z,26.26
2023-03-06T11:54:00.284Z,26.26
2023-03-06T11:55:00.703Z,26.26
2023-03-06T11:56:00.332Z,26.23
2023-03-06T11:57:00.333Z,26.21
2023-03-06T11:58:00.376Z,26.21
2023-03-06T11:59:00.405Z,26.21
2023-03-06T12:00:00.449Z,26.20
2023-03-06T12:01:00.517Z,26.20
2023-03-06T12:02:00.743Z,26.19
2023-03-06T12:03:00.542Z,26.19
2023-03-06T12:04:00.609Z,26.19
2023-03-06T12:05:01.203Z,26.18
2023-03-06T12:06:00.695Z,26.19
2023-03-06T12:07:00.743Z,26.17
2023-03-06T12:08:00.782Z,26.17
2023-03-06T12:09:00.864Z,26.16
2023-03-06T12:10:00.901Z,26.15
2023-03-06T12:11:00.932Z,26.15
2023-03-06T12:12:00.976Z,26.15
2023-03-06T12:13:01.063Z,26.13
2023-03-06T12:14:03.616Z,26.12
2023-03-06T12:15:01.135Z,26.11
2023-03-06T12:16:01.032Z,26.11
2023-03-06T12:17:01.080Z,26.11
2023-03-06T12:18:01.117Z,26.12
2023-03-06T12:19:01.094Z,26.10
2023-03-06T12:20:01.104Z,26.10
2023-03-06T12:21:01.043Z,26.10
2023-03-06T12:22:01.058Z,26.09
2023-03-06T12:23:14.645Z,26.08
2023-03-06T12:24:02.052Z,26.07
2023-03-06T12:25:01.058Z,26.06
2023-03-06T12:26:01.046Z,26.06
2023-03-06T12:27:01.002Z,26.06
2023-03-06T12:28:00.982Z,26.06
2023-03-06T12:29:00.998Z,26.04
2023-03-06T12:30:01.196Z,26.01
2023-03-06T12:31:00.977Z,25.93
2023-03-06T12:32:01.081Z,25.87
2023-03-06T12:33:00.956Z,25.87
2023-03-06T12:34:00.960Z,25.84
2023-03-06T12:35:01.188Z,25.80
2023-03-06T12:36:00.939Z,25.77
2023-03-06T12:37:00.904Z,25.75
2023-03-06T12:38:00.949Z,25.72
2023-03-06T12:39:00.942Z,25.70
2023-03-06T12:40:00.937Z,25.70
2023-03-06T12:41:00.895Z,25.69
2023-03-06T12:42:00.946Z,25.68
2023-03-06T12:43:00.918Z,25.68
2023-03-06T12:44:00.910Z,25.69
2023-03-06T12:45:00.956Z,25.70
2023-03-06T12:46:00.930Z,25.70
2023-03-06T12:47:00.928Z,25.71
2023-03-06T12:48:00.924Z,25.72
2023-03-06T12:49:00.934Z,25.72
2023-03-06T12:50:00.953Z,25.73
2023-03-06T12:51:00.949Z,25.73
2023-03-06T12:52:00.951Z,25.75
2023-03-06T12:53:00.915Z,25.76
2023-03-06T12:54:00.930Z,25.78
2023-03-06T12:55:00.902Z,25.79
2023-03-06T12:56:00.898Z,25.80
2023-03-06T12:57:00.918Z,25.81
2023-03-06T12:58:00.900Z,25.82
2023-03-06T12:59:00.899Z,25.83
2023-03-06T13:00:00.895Z,25.83
2023-03-06T13:01:04.732Z,25.83
2023-03-06T13:02:00.882Z,25.84
2023-03-06T13:03:00.879Z,25.85
2023-03-06T13:04:00.859Z,25.85
2023-03-06T13:05:00.868Z,25.85
2023-03-06T13:06:00.881Z,25.86
2023-03-06T13:07:00.864Z,25.83
2023-03-06T13:08:00.838Z,25.80
2023-03-06T13:09:00.824Z,25.76
2023-03-06T13:10:00.855Z,25.74
2023-03-06T13:11:00.795Z,25.71
2023-03-06T13:12:00.834Z,25.70
2023-03-06T13:13:00.896Z,25.69
2023-03-06T13:14:00.789Z,25.68
2023-03-06T13:15:00.870Z,25.70
2023-03-06T13:16:00.776Z,25.70
2023-03-06T13:17:00.781Z,25.71
2023-03-06T13:18:00.783Z,25.73
2023-03-06T13:19:00.737Z,25.75
2023-03-06T13:20:00.722Z,25.75
2023-03-06T13:21:00.742Z,25.76
2023-03-06T13:22:00.770Z,25.78
2023-03-06T13:23:00.768Z,25.79
2023-03-06T13:24:00.725Z,25.78
2023-03-06T13:25:08.164Z,25.79
2023-03-06T13:26:01.737Z,25.78
2023-03-06T13:27:00.716Z,25.78
2023-03-06T13:28:00.682Z,25.78
2023-03-06T13:29:00.684Z,25.79
2023-03-06T13:30:00.691Z,25.79
2023-03-06T13:31:00.731Z,25.79
2023-03-06T13:32:00.752Z,25.78
2023-03-06T13:33:00.628Z,25.78
2023-03-06T13:34:00.657Z,25.78
2023-03-06T13:35:00.643Z,25.79
2023-03-06T13:36:00.659Z,25.79
2023-03-06T13:37:00.621Z,25.80
2023-03-06T13:38:00.595Z,25.81
2023-03-06T13:39:00.604Z,25.80
2023-03-06T13:40:00.623Z,25.79
2023-03-06T13:41:00.621Z,25.80
2023-03-06T13:42:00.558Z,25.80
2023-03-06T13:43:00.564Z,25.81
2023-03-06T13:44:00.576Z,25.80
2023-03-06T13:45:00.561Z,25.80
2023-03-06T13:46:00.576Z,25.81
2023-03-06T13:47:00.580Z,25.80
2023-03-06T13:48:27.244Z,25.80
2023-03-06T13:49:01.522Z,25.80
2023-03-06T13:50:00.521Z,25.79
2023-03-06T13:51:00.525Z,25.79
2023-03-06T13:52:00.545Z,25.79
2023-03-06T13:53:00.493Z,25.79
2023-03-06T13:54:00.518Z,25.79
2023-03-06T13:55:00.484Z,25.78
2023-03-06T13:56:00.495Z,25.77
2023-03-06T13:57:00.455Z,25.78
2023-03-06T13:58:00.478Z,25.78
2023-03-06T13:59:00.477Z,25.78
2023-03-06T14:00:08.559Z,25.78
2023-03-06T14:01:01.476Z,25.77
2023-03-06T14:02:00.444Z,25.77
2023-03-06T14:03:00.466Z,25.77
2023-03-06T14:04:00.485Z,25.78
2023-03-06T14:05:00.411Z,25.78
2023-03-06T14:06:00.421Z,25.77
2023-03-06T14:07:00.394Z,25.76
2023-03-06T14:08:00.397Z,25.75
2023-03-06T14:09:00.369Z,25.75
2023-03-06T14:10:00.361Z,25.75
2023-03-06T14:11:00.379Z,25.73
2023-03-06T14:12:00.356Z,25.72
2023-03-06T14:13:00.373Z,25.72
2023-03-06T14:14:00.336Z,25.71
2023-03-06T14:15:00.345Z,25.71
2023-03-06T14:16:00.403Z,25.71
2023-03-06T14:17:00.327Z,25.71
2023-03-06T14:18:00.319Z,25.70
2023-03-06T14:19:00.318Z,25.69
2023-03-06T14:20:00.314Z,25.64
2023-03-06T14:21:00.293Z,25.60
2023-03-06T14:22:00.303Z,25.49
2023-03-06T14:23:00.268Z,25.41
